Long Hua — VRFR5 — position and weather

sailwx.info

Track history (hours):
 
Tides and Currents Weather Stations Pressure Air Temp Water Temp Dewpoint Dewpoint Depression Visibility Wind Speed Wind Dir Waves Ship Positions

Long Hua

Last reported at 2017-Mar-28 05:14 UTC. Time now 2017-Mar-28 11:57 UTC.
Position N 24°27' E 118°49'.

Length 180 m; draft 9.3 m.

Type: Cargo ship. MMSI: 477622800.

Date/timePositionNaut miles runAvg speedWind from/ knotsBaromVisibWave heightAir tempDewpointWater temp
2017-Mar-28 05:14N 24°27' E 118°49'1010.3
2017-Mar-28 04:18N 24°24' E 118°38'810.1
2017-Mar-28 03:31N 24°21' E 118°30'10 9.4
2017-Mar-28 02:30N 24°20' E 118°20'8 8.0
2017-Mar-28 01:33N 24°21' E 118°12'1 1.3
2017-Mar-28 00:29N 24°22' E 118°10'0 0.2
2017-Mar-27 23:29N 24°22' E 118°10'0 0.1
2017-Mar-27 22:32N 24°22' E 118°10'0 0.0
2017-Mar-27 21:32N 24°22' E 118°10'0 0.0
2017-Mar-27 20:32N 24°22' E 118°10'0 0.0
2017-Mar-27 19:32N 24°22' E 118°10'0 0.0
2017-Mar-27 18:32N 24°22' E 118°10'0 0.2
2017-Mar-27 17:32N 24°21' E 118°10'0 0.1
2017-Mar-27 16:32N 24°22' E 118°10'0 0.1
2017-Mar-27 15:32N 24°22' E 118°10'0 0.0
2017-Mar-27 14:32N 24°22' E 118°10'0 0.5
2017-Mar-27 13:33N 24°22' E 118°10'7 7.3
2017-Mar-27 12:33N 24°26' E 118°03'6 6.2
2017-Mar-27 11:33N 24°32' E 118°05'0 0.2
2017-Mar-27 10:33N 24°32' E 118°05'0 0.0
2017-Mar-27 09:33N 24°32' E 118°05'0 0.0
2017-Mar-27 08:33N 24°32' E 118°05'0 0.0
2017-Mar-27 07:21N 24°32' E 118°05'0 0.0
2017-Mar-27 06:27N 24°32' E 118°05'0 0.0
2017-Mar-27 05:27N 24°32' E 118°05'0 0.0
2017-Mar-27 04:33N 24°32' E 118°05'0 0.0
2017-Mar-27 03:33N 24°32' E 118°05'0 0.0
2017-Mar-27 02:15N 24°32' E 118°05'0 0.0
2017-Mar-27 01:33N 24°32' E 118°05'0 0.0
2017-Mar-27 00:33N 24°32' E 118°05'0 0.0
2017-Mar-26 23:15N 24°32' E 118°05'0 0.0
2017-Mar-26 22:27N 24°32' E 118°05'0 0.0
2017-Mar-26 21:33N 24°32' E 118°05'0 0.0
2017-Mar-26 20:33N 24°32' E 118°05'0 0.0
2017-Mar-26 19:33N 24°32' E 118°05'0 0.0
2017-Mar-26 18:33N 24°32' E 118°05'0 0.0
2017-Mar-26 17:15N 24°32' E 118°05'0 0.0
2017-Mar-26 16:15N 24°32' E 118°05'0 0.0
2017-Mar-26 15:21N 24°32' E 118°05'0 0.0
2017-Mar-26 14:27N 24°32' E 118°05'0 0.0
2017-Mar-26 13:33N 24°32' E 118°05'0 0.0
2017-Mar-26 12:33N 24°32' E 118°05'0 0.0
2017-Mar-26 10:33N 24°32' E 118°05'0 0.0
2017-Mar-26 09:27N 24°32' E 118°05'0 0.0
2017-Mar-26 07:09N 24°32' E 118°05'0 0.0
2017-Mar-26 06:21N 24°32' E 118°05'0 0.0
2017-Mar-26 05:27N 24°32' E 118°05'0 0.0
2017-Mar-26 04:33N 24°32' E 118°05'0 0.1
2017-Mar-26 03:34N 24°32' E 118°05'7 7.0
2017-Mar-26 02:34N 24°25' E 118°05'1111.1
2017-Mar-26 01:32N 24°19' E 118°16'5 2.3
2017-Mar-25 23:24N 24°20' E 118°21'1 1.4
2017-Mar-25 22:32N 24°20' E 118°22'11 9.3
2017-Mar-25 21:20N 24°22' E 118°34'  
Track history (hours):
 
Tides and Currents Weather Stations Pressure Air Temp Water Temp Dewpoint Dewpoint Depression Visibility Wind Speed Wind Dir Waves Ship Positions

Long Hua

Last reported at 2017-Mar-28 05:14 UTC. Time now 2017-Mar-28 11:57 UTC.
Position N 24°27' E 118°49'.

Length 180 m; draft 9.3 m.

Type: Cargo ship. MMSI: 477622800.

Date/timePositionNaut miles runAvg speedWind from/ knotsBaromVisibWave heightAir tempDewpointWater temp
2017-Mar-28 05:14N 24°27' E 118°49'1010.3
2017-Mar-28 04:18N 24°24' E 118°38'810.1
2017-Mar-28 03:31N 24°21' E 118°30'10 9.4
2017-Mar-28 02:30N 24°20' E 118°20'8 8.0
2017-Mar-28 01:33N 24°21' E 118°12'1 1.3
2017-Mar-28 00:29N 24°22' E 118°10'0 0.2
2017-Mar-27 23:29N 24°22' E 118°10'0 0.1
2017-Mar-27 22:32N 24°22' E 118°10'0 0.0
2017-Mar-27 21:32N 24°22' E 118°10'0 0.0
2017-Mar-27 20:32N 24°22' E 118°10'0 0.0
2017-Mar-27 19:32N 24°22' E 118°10'0 0.0
2017-Mar-27 18:32N 24°22' E 118°10'0 0.2
2017-Mar-27 17:32N 24°21' E 118°10'0 0.1
2017-Mar-27 16:32N 24°22' E 118°10'0 0.1
2017-Mar-27 15:32N 24°22' E 118°10'0 0.0
2017-Mar-27 14:32N 24°22' E 118°10'0 0.5
2017-Mar-27 13:33N 24°22' E 118°10'7 7.3
2017-Mar-27 12:33N 24°26' E 118°03'6 6.2
2017-Mar-27 11:33N 24°32' E 118°05'0 0.2
2017-Mar-27 10:33N 24°32' E 118°05'0 0.0
2017-Mar-27 09:33N 24°32' E 118°05'0 0.0
2017-Mar-27 08:33N 24°32' E 118°05'0 0.0
2017-Mar-27 07:21N 24°32' E 118°05'0 0.0
2017-Mar-27 06:27N 24°32' E 118°05'0 0.0
2017-Mar-27 05:27N 24°32' E 118°05'0 0.0
2017-Mar-27 04:33N 24°32' E 118°05'0 0.0
2017-Mar-27 03:33N 24°32' E 118°05'0 0.0
2017-Mar-27 02:15N 24°32' E 118°05'0 0.0
2017-Mar-27 01:33N 24°32' E 118°05'0 0.0
2017-Mar-27 00:33N 24°32' E 118°05'0 0.0
2017-Mar-26 23:15N 24°32' E 118°05'0 0.0
2017-Mar-26 22:27N 24°32' E 118°05'0 0.0
2017-Mar-26 21:33N 24°32' E 118°05'0 0.0
2017-Mar-26 20:33N 24°32' E 118°05'0 0.0
2017-Mar-26 19:33N 24°32' E 118°05'0 0.0
2017-Mar-26 18:33N 24°32' E 118°05'0 0.0
2017-Mar-26 17:15N 24°32' E 118°05'0 0.0
2017-Mar-26 16:15N 24°32' E 118°05'0 0.0
2017-Mar-26 15:21N 24°32' E 118°05'0 0.0
2017-Mar-26 14:27N 24°32' E 118°05'0 0.0
2017-Mar-26 13:33N 24°32' E 118°05'0 0.0
2017-Mar-26 12:33N 24°32' E 118°05'0 0.0
2017-Mar-26 10:33N 24°32' E 118°05'0 0.0
2017-Mar-26 09:27N 24°32' E 118°05'0 0.0
2017-Mar-26 07:09N 24°32' E 118°05'0 0.0
2017-Mar-26 06:21N 24°32' E 118°05'0 0.0
2017-Mar-26 05:27N 24°32' E 118°05'0 0.0
2017-Mar-26 04:33N 24°32' E 118°05'0 0.1
2017-Mar-26 03:34N 24°32' E 118°05'7 7.0
2017-Mar-26 02:34N 24°25' E 118°05'1111.1
2017-Mar-26 01:32N 24°19' E 118°16'5 2.3
2017-Mar-25 23:24N 24°20' E 118°21'1 1.4
2017-Mar-25 22:32N 24°20' E 118°22'11 9.3
2017-Mar-25 21:20N 24°22' E 118°34'  

Dump ship's entire track history